createdAt,value
2018-11-13T00:00:30.850Z,17.25
2018-11-13T00:01:30.767Z,17.15
2018-11-13T00:02:30.707Z,17.14
2018-11-13T00:03:30.639Z,17.21
2018-11-13T00:04:30.571Z,17.18
2018-11-13T00:05:30.503Z,17.22
2018-11-13T00:06:30.429Z,17.11
2018-11-13T00:07:30.359Z,17.19
2018-11-13T00:08:30.297Z,17.16
2018-11-13T00:09:30.234Z,17.12
2018-11-13T00:10:30.185Z,17.04
2018-11-13T00:11:30.147Z,17.07
2018-11-13T00:12:30.042Z,17.11
2018-11-13T00:13:29.974Z,17.11
2018-11-13T00:14:29.892Z,17.18
2018-11-13T00:15:29.824Z,17.18
2018-11-13T00:16:29.783Z,17.08
2018-11-13T00:17:29.691Z,17.07
2018-11-13T00:18:29.615Z,17.12
2018-11-13T00:19:29.565Z,17.03
2018-11-13T00:20:29.479Z,17.08
2018-11-13T00:21:29.430Z,17.08
2018-11-13T00:22:29.357Z,17.06
2018-11-13T00:23:29.281Z,17.04
2018-11-13T00:24:29.209Z,17.08
2018-11-13T00:25:29.140Z,17.12
2018-11-13T00:26:29.085Z,17.07
2018-11-13T00:27:29.098Z,17.12
2018-11-13T00:28:28.946Z,17.11
2018-11-13T00:29:28.933Z,17.04
2018-11-13T00:30:28.820Z,17.16
2018-11-13T00:31:28.731Z,17.16
2018-11-13T00:32:28.664Z,17.11
2018-11-13T00:33:28.619Z,17.14
2018-11-13T00:34:28.541Z,17.11
2018-11-13T00:35:28.479Z,17.12
2018-11-13T00:36:28.405Z,17.11
2018-11-13T00:37:28.343Z,17.06
2018-11-13T00:38:28.278Z,17.01
2018-11-13T00:39:28.210Z,17.12
2018-11-13T00:40:28.135Z,17.04
2018-11-13T00:41:28.077Z,17.08
2018-11-13T00:42:28.030Z,17.07
2018-11-13T00:43:27.942Z,17.12
2018-11-13T00:44:27.851Z,17.07
2018-11-13T00:45:27.837Z,17.06
2018-11-13T00:46:27.733Z,17.12
2018-11-13T00:47:27.665Z,17.07
2018-11-13T00:48:28.157Z,17.03
2018-11-13T00:49:27.533Z,16.93
2018-11-13T00:50:27.488Z,16.94
2018-11-13T00:51:27.401Z,16.96
2018-11-13T00:52:27.334Z,16.89
2018-11-13T00:53:27.246Z,16.91
2018-11-13T00:54:27.194Z,16.96
2018-11-13T00:55:27.120Z,16.96
2018-11-13T00:56:27.040Z,16.82
2018-11-13T00:57:26.980Z,16.75
2018-11-13T00:58:26.915Z,16.70
2018-11-13T00:59:26.866Z,16.85
2018-11-13T01:00:26.781Z,16.76
2018-11-13T01:01:26.713Z,16.71
2018-11-13T01:02:26.663Z,16.67
2018-11-13T01:03:26.572Z,16.52
2018-11-13T01:04:26.517Z,16.56
2018-11-13T01:05:26.548Z,16.50
2018-11-13T01:06:26.370Z,16.50
2018-11-13T01:07:26.298Z,16.56
2018-11-13T01:08:26.226Z,16.42
2018-11-13T01:09:26.158Z,16.31
2018-11-13T01:10:26.107Z,16.31
2018-11-13T01:11:26.039Z,16.38
2018-11-13T01:12:25.957Z,16.41
2018-11-13T01:13:25.922Z,16.30
2018-11-13T01:14:25.838Z,16.34
2018-11-13T01:15:25.761Z,16.38
2018-11-13T01:16:25.696Z,16.30
2018-11-13T01:17:25.640Z,16.23
2018-11-13T01:18:25.571Z,16.23
2018-11-13T01:19:25.518Z,16.21
2018-11-13T01:20:25.413Z,16.31
2018-11-13T01:21:25.348Z,16.20
2018-11-13T01:22:25.335Z,16.28
2018-11-13T01:23:25.455Z,16.31
2018-11-13T01:24:25.153Z,16.34
2018-11-13T01:25:25.089Z,16.38
2018-11-13T01:26:25.011Z,16.20
2018-11-13T01:27:24.959Z,16.27
2018-11-13T01:28:24.884Z,16.15
2018-11-13T01:29:24.818Z,16.20
2018-11-13T01:30:24.778Z,16.15
2018-11-13T01:31:24.681Z,16.15
2018-11-13T01:32:24.598Z,16.20
2018-11-13T01:33:24.549Z,16.20
2018-11-13T01:34:24.471Z,16.14
2018-11-13T01:35:24.401Z,16.24
2018-11-13T01:36:24.330Z,16.17
2018-11-13T01:37:24.265Z,16.12
2018-11-13T01:38:24.204Z,16.17
2018-11-13T01:39:24.131Z,16.23
2018-11-13T01:40:24.071Z,16.21
2018-11-13T01:41:23.995Z,16.25
2018-11-13T01:42:23.932Z,16.30
2018-11-13T01:43:23.851Z,16.34
2018-11-13T01:44:23.793Z,16.27
2018-11-13T01:45:23.729Z,16.30
2018-11-13T01:46:23.661Z,16.25
2018-11-13T01:47:23.590Z,16.34
2018-11-13T01:48:23.510Z,16.34
2018-11-13T01:49:23.461Z,16.45
2018-11-13T01:50:23.384Z,16.30
2018-11-13T01:51:23.318Z,16.30
2018-11-13T01:52:23.247Z,16.34
2018-11-13T01:53:23.178Z,16.24
2018-11-13T01:54:23.148Z,16.33
2018-11-13T01:55:23.034Z,16.14
2018-11-13T01:56:22.969Z,16.11
2018-11-13T01:57:22.900Z,16.20
2018-11-13T01:58:22.835Z,16.17
2018-11-13T01:59:22.767Z,16.20
2018-11-13T02:00:22.717Z,16.15
2018-11-13T02:01:22.621Z,16.14
2018-11-13T02:02:22.565Z,16.14
2018-11-13T02:03:22.493Z,16.14
2018-11-13T02:04:22.428Z,16.17
2018-11-13T02:05:22.357Z,16.20
2018-11-13T02:06:22.286Z,16.23
2018-11-13T02:07:22.216Z,16.23
2018-11-13T02:08:22.163Z,16.14
2018-11-13T02:09:22.115Z,15.97
2018-11-13T02:10:22.029Z,16.07
2018-11-13T02:11:21.942Z,16.04
2018-11-13T02:12:21.889Z,16.07
2018-11-13T02:13:21.809Z,15.97
2018-11-13T02:14:21.746Z,16.05
2018-11-13T02:15:21.686Z,15.94
2018-11-13T02:16:21.599Z,16.07
2018-11-13T02:17:21.538Z,16.04
2018-11-13T02:18:21.474Z,16.09
2018-11-13T02:19:21.408Z,16.02
2018-11-13T02:20:21.335Z,16.04
2018-11-13T02:21:21.267Z,16.07
2018-11-13T02:22:21.190Z,16.08
2018-11-13T02:23:21.122Z,15.97
2018-11-13T02:24:21.054Z,16.04
2018-11-13T02:25:20.985Z,16.09
2018-11-13T02:26:20.929Z,16.12
2018-11-13T02:27:20.859Z,16.17
2018-11-13T02:28:20.798Z,16.20
2018-11-13T02:29:20.723Z,16.23
2018-11-13T02:30:20.661Z,16.23
2018-11-13T02:31:20.577Z,16.17
2018-11-13T02:32:20.517Z,16.15
2018-11-13T02:33:20.450Z,16.23
2018-11-13T02:34:20.374Z,16.14
2018-11-13T02:35:20.333Z,16.20
2018-11-13T02:36:20.236Z,16.24
2018-11-13T02:37:20.170Z,16.14
2018-11-13T02:38:20.111Z,16.02
2018-11-13T02:39:20.048Z,16.05
2018-11-13T02:40:19.977Z,15.96
2018-11-13T02:41:19.902Z,16.05
2018-11-13T02:42:19.827Z,16.00
2018-11-13T02:43:19.761Z,16.02
2018-11-13T02:44:19.687Z,15.94
2018-11-13T02:45:19.659Z,16.07
2018-11-13T02:46:19.581Z,16.08
2018-11-13T02:47:19.493Z,15.93
2018-11-13T02:48:19.414Z,16.01
2018-11-13T02:49:19.357Z,16.01
2018-11-13T02:50:19.291Z,16.11
2018-11-13T02:51:19.221Z,16.04
2018-11-13T02:52:19.152Z,16.05
2018-11-13T02:53:19.085Z,16.07
2018-11-13T02:54:19.014Z,16.09
2018-11-13T02:55:19.002Z,16.20
2018-11-13T02:56:18.877Z,16.12
2018-11-13T02:57:18.823Z,16.12
2018-11-13T02:58:18.746Z,16.21
2018-11-13T02:59:18.677Z,16.17
2018-11-13T03:00:18.611Z,16.11
2018-11-13T03:01:18.543Z,16.05
2018-11-13T03:02:18.459Z,16.07
2018-11-13T03:03:18.412Z,15.96
2018-11-13T03:04:18.335Z,15.93
2018-11-13T03:05:18.269Z,15.96
2018-11-13T03:06:18.228Z,16.02
2018-11-13T03:07:18.141Z,16.07
2018-11-13T03:08:18.059Z,16.00
2018-11-13T03:09:18.003Z,16.04
2018-11-13T03:10:17.930Z,16.08
2018-11-13T03:11:17.859Z,16.12
2018-11-13T03:12:17.780Z,16.15
2018-11-13T03:13:17.712Z,16.20
2018-11-13T03:14:17.657Z,16.05
2018-11-13T03:15:17.591Z,16.08
2018-11-13T03:16:17.521Z,16.17
2018-11-13T03:17:17.449Z,16.20
2018-11-13T03:18:17.371Z,16.20
2018-11-13T03:19:17.306Z,16.21
2018-11-13T03:20:17.244Z,16.20
2018-11-13T03:21:17.177Z,16.21
2018-11-13T03:22:17.128Z,16.20
2018-11-13T03:23:17.030Z,16.21
2018-11-13T03:24:16.962Z,16.25
2018-11-13T03:25:16.893Z,16.12
2018-11-13T03:26:16.834Z,16.28
2018-11-13T03:27:16.778Z,16.27
2018-11-13T03:28:16.702Z,16.25
2018-11-13T03:29:16.637Z,16.17
2018-11-13T03:30:16.554Z,16.09
2018-11-13T03:31:16.622Z,16.08
2018-11-13T03:32:16.434Z,15.97
2018-11-13T03:33:16.352Z,16.01
2018-11-13T03:34:16.290Z,15.94
2018-11-13T03:35:16.224Z,15.97
2018-11-13T03:36:16.151Z,16.04
2018-11-13T03:37:16.076Z,16.08
2018-11-13T03:38:16.017Z,16.09
2018-11-13T03:39:15.950Z,16.08
2018-11-13T03:40:15.881Z,16.12
2018-11-13T03:41:15.846Z,15.97
2018-11-13T03:42:15.733Z,15.94
2018-11-13T03:43:15.685Z,16.07
2018-11-13T03:44:15.603Z,15.93
2018-11-13T03:45:15.533Z,16.01
2018-11-13T03:46:15.476Z,16.01
2018-11-13T03:47:15.411Z,16.04
2018-11-13T03:48:15.340Z,15.86
2018-11-13T03:49:15.268Z,15.93
2018-11-13T03:50:15.205Z,15.97
2018-11-13T03:51:15.740Z,15.92
2018-11-13T03:52:15.066Z,15.80
2018-11-13T03:53:14.999Z,15.78
2018-11-13T03:54:14.916Z,15.71
2018-11-13T03:55:14.856Z,15.69
2018-11-13T03:56:14.780Z,15.69
2018-11-13T03:57:14.715Z,15.68
2018-11-13T03:58:14.660Z,15.74
2018-11-13T03:59:14.583Z,15.78
2018-11-13T04:00:14.523Z,15.89
2018-11-13T04:01:14.452Z,15.76
2018-11-13T04:02:14.389Z,15.82
2018-11-13T04:03:14.326Z,15.92
2018-11-13T04:04:14.242Z,15.92
2018-11-13T04:05:14.164Z,16.00
2018-11-13T04:06:14.107Z,16.01
2018-11-13T04:07:14.038Z,16.05
2018-11-13T04:08:13.962Z,16.02
2018-11-13T04:09:13.931Z,16.09
2018-11-13T04:10:13.838Z,16.07
2018-11-13T04:11:13.766Z,16.14
2018-11-13T04:12:13.712Z,16.17
2018-11-13T04:13:13.629Z,16.12
2018-11-13T04:14:13.555Z,16.20
2018-11-13T04:15:13.495Z,16.11
2018-11-13T04:16:13.428Z,16.04
2018-11-13T04:17:13.360Z,16.02
2018-11-13T04:18:13.278Z,16.02
2018-11-13T04:19:13.229Z,16.00
2018-11-13T04:20:13.143Z,16.02
2018-11-13T04:21:13.092Z,16.01
2018-11-13T04:22:13.016Z,16.11
2018-11-13T04:23:12.952Z,16.05
2018-11-13T04:24:12.953Z,16.12
2018-11-13T04:25:12.814Z,16.11
2018-11-13T04:26:12.744Z,16.04
2018-11-13T04:27:12.682Z,16.09
2018-11-13T04:28:12.634Z,16.15
2018-11-13T04:29:12.548Z,16.00
2018-11-13T04:30:12.469Z,16.02
2018-11-13T04:31:12.401Z,15.97
2018-11-13T04:32:12.323Z,16.00
2018-11-13T04:33:12.268Z,16.01
2018-11-13T04:34:12.200Z,15.97
2018-11-13T04:35:12.125Z,16.04
2018-11-13T04:36:12.077Z,16.01
2018-11-13T04:37:11.988Z,16.08
2018-11-13T04:38:11.915Z,16.09
2018-11-13T04:39:11.865Z,16.14
2018-11-13T04:40:11.791Z,16.02
2018-11-13T04:41:11.716Z,16.05
2018-11-13T04:42:11.641Z,16.12
2018-11-13T04:43:11.574Z,16.05
2018-11-13T04:44:11.551Z,16.02
2018-11-13T04:45:11.445Z,16.02
2018-11-13T04:46:11.378Z,16.04
2018-11-13T04:47:11.323Z,16.08
2018-11-13T04:48:11.246Z,15.94
2018-11-13T04:49:11.165Z,15.97
2018-11-13T04:50:11.102Z,16.08
2018-11-13T04:51:11.039Z,16.04
2018-11-13T04:52:10.975Z,16.01
2018-11-13T04:53:10.900Z,16.04
2018-11-13T04:54:10.831Z,16.01
2018-11-13T04:55:10.767Z,15.97
2018-11-13T04:56:10.698Z,16.08
2018-11-13T04:57:10.622Z,16.04
2018-11-13T04:58:10.559Z,16.08
2018-11-13T04:59:10.506Z,15.93
2018-11-13T05:00:10.418Z,16.04
2018-11-13T05:01:10.342Z,16.07
2018-11-13T05:02:10.273Z,16.08
2018-11-13T05:03:10.227Z,16.05
2018-11-13T05:04:10.141Z,15.93
2018-11-13T05:05:10.083Z,16.00
2018-11-13T05:06:10.014Z,16.05
2018-11-13T05:07:09.944Z,16.05
2018-11-13T05:08:09.872Z,16.09
2018-11-13T05:09:09.822Z,16.07
2018-11-13T05:10:09.802Z,16.20
2018-11-13T05:11:09.666Z,16.11
2018-11-13T05:12:09.603Z,16.11
2018-11-13T05:13:09.527Z,16.20
2018-11-13T05:14:09.472Z,16.21
2018-11-13T05:15:09.383Z,16.09
2018-11-13T05:16:09.321Z,16.09
2018-11-13T05:17:09.256Z,16.12
2018-11-13T05:18:09.192Z,16.11
2018-11-13T05:19:09.115Z,16.11
2018-11-13T05:20:09.046Z,16.17
2018-11-13T05:21:09.007Z,16.15
2018-11-13T05:22:08.918Z,16.12
2018-11-13T05:23:08.890Z,16.20
2018-11-13T05:24:08.783Z,16.21
2018-11-13T05:25:08.719Z,16.21
2018-11-13T05:26:08.634Z,16.17
2018-11-13T05:27:08.574Z,16.24
2018-11-13T05:28:08.506Z,16.23
2018-11-13T05:29:08.431Z,16.28
2018-11-13T05:30:08.363Z,16.41
2018-11-13T05:31:08.310Z,16.38
2018-11-13T05:32:08.225Z,16.43
2018-11-13T05:33:08.167Z,16.42
2018-11-13T05:34:08.100Z,16.48
2018-11-13T05:35:08.036Z,16.46
2018-11-13T05:36:07.967Z,16.52
2018-11-13T05:37:07.884Z,16.53
2018-11-13T05:38:07.817Z,16.53
2018-11-13T05:39:07.752Z,16.50
2018-11-13T05:40:07.700Z,16.48
2018-11-13T05:41:07.624Z,16.49
2018-11-13T05:42:07.561Z,16.43
2018-11-13T05:43:07.490Z,16.35
2018-11-13T05:44:07.409Z,16.42
2018-11-13T05:45:07.353Z,16.35
2018-11-13T05:46:07.286Z,16.38
2018-11-13T05:47:07.289Z,16.38
2018-11-13T05:48:07.144Z,16.34
2018-11-13T05:49:07.082Z,16.31
2018-11-13T05:50:07.006Z,16.30
2018-11-13T05:51:06.938Z,16.42
2018-11-13T05:52:06.888Z,16.45
2018-11-13T05:53:06.812Z,16.50
2018-11-13T05:54:06.727Z,16.43
2018-11-13T05:55:06.664Z,16.56
2018-11-13T05:56:06.606Z,16.52
2018-11-13T05:57:06.536Z,16.49
2018-11-13T05:58:06.468Z,16.48
2018-11-13T05:59:06.393Z,16.53
2018-11-13T06:00:06.327Z,16.57
2018-11-13T06:01:06.274Z,16.57
2018-11-13T06:02:06.226Z,16.52
2018-11-13T06:03:06.129Z,16.58
2018-11-13T06:04:06.060Z,16.58
2018-11-13T06:05:05.986Z,16.60
2018-11-13T06:06:05.928Z,16.57
2018-11-13T06:07:05.843Z,16.58
2018-11-13T06:08:05.779Z,16.58
2018-11-13T06:09:05.716Z,16.60
2018-11-13T06:10:05.654Z,16.60
2018-11-13T06:11:05.582Z,16.71
2018-11-13T06:12:05.520Z,16.58
2018-11-13T06:13:05.437Z,16.71
2018-11-13T06:14:05.438Z,16.66
2018-11-13T06:15:05.309Z,16.61
2018-11-13T06:16:05.245Z,16.63
2018-11-13T06:17:05.166Z,16.64
2018-11-13T06:18:05.162Z,16.64
2018-11-13T06:19:05.032Z,16.75
2018-11-13T06:20:04.961Z,16.78
2018-11-13T06:21:04.905Z,16.67
2018-11-13T06:22:04.838Z,16.78
2018-11-13T06:23:04.788Z,16.78
2018-11-13T06:24:04.693Z,16.53
2018-11-13T06:25:04.630Z,16.50
2018-11-13T06:26:04.565Z,16.57
2018-11-13T06:27:04.495Z,16.45
2018-11-13T06:28:04.428Z,16.46
2018-11-13T06:29:04.365Z,16.41
2018-11-13T06:30:04.282Z,16.43
2018-11-13T06:31:04.226Z,16.42
2018-11-13T06:32:04.157Z,16.43
2018-11-13T06:33:04.078Z,16.49
2018-11-13T06:34:04.014Z,16.42
2018-11-13T06:35:03.941Z,16.48
2018-11-13T06:36:03.888Z,16.48
2018-11-13T06:37:03.817Z,16.58
2018-11-13T06:38:03.748Z,16.58
2018-11-13T06:39:03.682Z,16.46
2018-11-13T06:40:03.612Z,16.52
2018-11-13T06:41:03.547Z,16.57
2018-11-13T06:42:03.467Z,16.46
2018-11-13T06:43:03.409Z,16.58
2018-11-13T06:44:03.327Z,16.56
2018-11-13T06:45:03.270Z,16.57
2018-11-13T06:46:03.211Z,16.49
2018-11-13T06:47:03.131Z,16.52
2018-11-13T06:48:03.056Z,16.64
2018-11-13T06:49:03.030Z,16.53
2018-11-13T06:50:02.946Z,16.46
2018-11-13T06:51:02.864Z,16.49
2018-11-13T06:52:02.794Z,16.48
2018-11-13T06:53:02.721Z,16.48
2018-11-13T06:54:02.673Z,16.49
2018-11-13T06:55:02.593Z,16.49
2018-11-13T06:56:02.521Z,16.46
2018-11-13T06:57:02.480Z,16.52
2018-11-13T06:58:02.388Z,16.50
2018-11-13T06:59:02.319Z,16.49
2018-11-13T07:00:02.257Z,16.52
2018-11-13T07:01:02.177Z,16.58
2018-11-13T07:02:02.107Z,16.56
2018-11-13T07:03:02.094Z,16.49
2018-11-13T07:04:01.985Z,16.53
2018-11-13T07:05:01.966Z,16.56
2018-11-13T07:06:01.849Z,16.57
2018-11-13T07:07:01.792Z,16.56
2018-11-13T07:08:01.720Z,16.48
2018-11-13T07:09:01.645Z,16.53
2018-11-13T07:10:01.581Z,16.48
2018-11-13T07:11:01.573Z,16.43
2018-11-13T07:12:01.440Z,16.49
2018-11-13T07:13:01.366Z,16.31
2018-11-13T07:14:01.294Z,16.43
2018-11-13T07:15:01.225Z,16.45
2018-11-13T07:16:01.162Z,16.50
2018-11-13T07:17:01.099Z,16.42
2018-11-13T07:18:01.032Z,16.43
2018-11-13T07:19:00.955Z,16.50
2018-11-13T07:20:00.902Z,16.50
2018-11-13T07:21:00.831Z,16.38
2018-11-13T07:22:00.767Z,16.39
2018-11-13T07:23:00.691Z,16.31
2018-11-13T07:24:00.624Z,16.38
2018-11-13T07:25:00.544Z,16.33
2018-11-13T07:26:00.483Z,16.34
2018-11-13T07:27:00.426Z,16.34
2018-11-13T07:28:00.413Z,16.28
2018-11-13T07:29:00.271Z,16.35
2018-11-13T07:30:00.237Z,16.38
2018-11-13T07:31:00.132Z,16.46
2018-11-13T07:32:00.091Z,16.38
2018-11-13T07:33:00.010Z,16.39
2018-11-13T07:33:59.945Z,16.46
2018-11-13T07:34:59.865Z,16.41
2018-11-13T07:35:59.816Z,16.39
2018-11-13T07:36:59.736Z,16.28
2018-11-13T07:37:59.677Z,16.39
2018-11-13T07:38:59.605Z,16.45
2018-11-13T07:39:59.541Z,16.46
2018-11-13T07:40:59.499Z,16.52
2018-11-13T07:41:59.391Z,16.71
2018-11-13T07:42:59.322Z,16.73
2018-11-13T07:43:59.270Z,16.73
2018-11-13T07:44:59.245Z,16.66
2018-11-13T07:45:59.132Z,16.66
2018-11-13T07:46:59.100Z,16.64
2018-11-13T07:47:59.080Z,16.66
2018-11-13T07:48:58.934Z,16.66
2018-11-13T07:49:58.865Z,16.68
2018-11-13T07:50:58.836Z,16.71
2018-11-13T07:51:58.722Z,16.81
2018-11-13T07:52:58.645Z,16.73
2018-11-13T07:53:58.656Z,16.78
2018-11-13T07:54:58.510Z,16.78
2018-11-13T07:55:58.445Z,16.89
2018-11-13T07:56:58.381Z,16.83
2018-11-13T07:57:58.321Z,16.85
2018-11-13T07:58:58.248Z,16.79
2018-11-13T07:59:58.184Z,16.78
2018-11-13T08:00:58.104Z,16.67
2018-11-13T08:01:58.069Z,16.68
2018-11-13T08:02:57.964Z,16.67
2018-11-13T08:03:57.901Z,16.75
2018-11-13T08:04:57.844Z,16.78
2018-11-13T08:05:57.784Z,16.83
2018-11-13T08:06:57.714Z,16.64
2018-11-13T08:07:57.646Z,16.67
2018-11-13T08:08:57.570Z,16.71
2018-11-13T08:09:57.504Z,16.71
2018-11-13T08:10:57.436Z,16.75
2018-11-13T08:11:57.368Z,16.71
2018-11-13T08:12:57.425Z,16.81
2018-11-13T08:13:57.242Z,16.85
2018-11-13T08:14:57.172Z,16.83
2018-11-13T08:15:57.090Z,16.91
2018-11-13T08:16:57.034Z,16.98
2018-11-13T08:17:56.987Z,17.00
2018-11-13T08:18:56.941Z,17.03
2018-11-13T08:19:56.834Z,17.00
2018-11-13T08:20:56.752Z,16.96
2018-11-13T08:21:56.738Z,16.93
2018-11-13T08:22:56.627Z,16.86
2018-11-13T08:23:56.557Z,16.88
2018-11-13T08:24:56.481Z,16.82
2018-11-13T08:25:56.415Z,16.91
2018-11-13T08:26:56.354Z,16.94
2018-11-13T08:27:56.336Z,16.97
2018-11-13T08:28:56.346Z,16.96
2018-11-13T08:29:56.153Z,16.96
2018-11-13T08:30:56.097Z,17.07
2018-11-13T08:31:56.003Z,17.00
2018-11-13T08:32:55.960Z,17.11
2018-11-13T08:33:55.894Z,17.14
2018-11-13T08:34:55.960Z,17.11
2018-11-13T08:35:55.744Z,17.08
2018-11-13T08:36:55.686Z,16.98
2018-11-13T08:37:55.626Z,17.08
2018-11-13T08:38:55.547Z,17.06
2018-11-13T08:39:55.482Z,16.97
2018-11-13T08:40:55.404Z,17.01
2018-11-13T08:41:55.334Z,17.12
2018-11-13T08:42:55.273Z,17.07
2018-11-13T08:43:55.208Z,17.08
2018-11-13T08:44:55.143Z,17.18
2018-11-13T08:45:55.074Z,17.23
2018-11-13T08:46:55.010Z,17.22
2018-11-13T08:47:54.938Z,17.28
2018-11-13T08:48:54.862Z,17.26
2018-11-13T08:49:54.799Z,17.36
2018-11-13T08:50:54.749Z,17.37
2018-11-13T08:51:54.679Z,17.40
2018-11-13T08:52:54.607Z,17.44
2018-11-13T08:53:54.536Z,17.48
2018-11-13T08:54:54.457Z,17.44
2018-11-13T08:55:54.395Z,17.36
2018-11-13T08:56:54.339Z,17.43
2018-11-13T08:57:54.274Z,17.46
2018-11-13T08:58:54.326Z,17.52
2018-11-13T08:59:54.141Z,17.54
2018-11-13T09:00:54.061Z,17.51
2018-11-13T09:01:53.995Z,17.44
2018-11-13T09:02:54.046Z,17.51
2018-11-13T09:03:53.876Z,17.46
2018-11-13T09:04:53.878Z,17.48
2018-11-13T09:05:53.745Z,17.37
2018-11-13T09:06:53.673Z,17.37
2018-11-13T09:07:53.605Z,17.41
2018-11-13T09:08:53.546Z,17.44
2018-11-13T09:09:53.467Z,17.46
2018-11-13T09:10:53.398Z,17.44
2018-11-13T09:11:53.445Z,17.28
2018-11-13T09:12:53.260Z,17.23
2018-11-13T09:13:53.195Z,17.15
2018-11-13T09:14:53.121Z,17.21
2018-11-13T09:15:53.059Z,17.22
2018-11-13T09:16:53.000Z,17.28
2018-11-13T09:17:52.969Z,17.28
2018-11-13T09:18:52.990Z,17.25
2018-11-13T09:19:52.800Z,17.33
2018-11-13T09:20:52.723Z,17.38
2018-11-13T09:21:52.676Z,17.37
2018-11-13T09:22:52.654Z,17.43
2018-11-13T09:23:52.528Z,17.46
2018-11-13T09:24:52.462Z,17.55
2018-11-13T09:25:52.404Z,17.64
2018-11-13T09:26:52.319Z,17.64
2018-11-13T09:27:52.257Z,17.68
2018-11-13T09:28:52.196Z,17.74
2018-11-13T09:29:52.222Z,17.79
2018-11-13T09:30:52.337Z,17.89
2018-11-13T09:31:52.202Z,17.92
2018-11-13T09:32:51.956Z,17.78
2018-11-13T09:33:51.853Z,17.78
2018-11-13T09:34:51.796Z,17.82
2018-11-13T09:35:51.775Z,17.82
2018-11-13T09:36:51.653Z,17.89
2018-11-13T09:37:51.591Z,17.84
2018-11-13T09:38:51.532Z,17.92
2018-11-13T09:39:51.456Z,17.81
2018-11-13T09:40:51.392Z,17.89
2018-11-13T09:41:51.326Z,17.78
2018-11-13T09:42:51.251Z,17.74
2018-11-13T09:43:51.189Z,17.74
2018-11-13T09:44:51.217Z,17.64
2018-11-13T09:45:51.128Z,17.59
2018-11-13T09:46:50.997Z,17.64
2018-11-13T09:47:51.033Z,17.38
2018-11-13T09:48:50.857Z,17.26
2018-11-13T09:49:50.785Z,17.31
2018-11-13T09:50:50.807Z,17.26
2018-11-13T09:51:50.651Z,17.37
2018-11-13T09:52:50.595Z,17.43
2018-11-13T09:53:50.628Z,17.44
2018-11-13T09:54:50.462Z,17.52
2018-11-13T09:55:50.401Z,17.49
2018-11-13T09:56:50.314Z,17.49
2018-11-13T09:57:50.249Z,17.63
2018-11-13T09:58:50.193Z,17.63
2018-11-13T09:59:50.179Z,17.64
2018-11-13T10:00:50.176Z,17.63
2018-11-13T10:01:50.302Z,17.59
2018-11-13T10:02:50.467Z,17.66
2018-11-13T10:03:50.508Z,17.59
2018-11-13T10:04:50.503Z,17.63
2018-11-13T10:05:49.803Z,17.59
2018-11-13T10:06:49.655Z,17.56
2018-11-13T10:07:49.605Z,17.64
2018-11-13T10:08:49.524Z,17.51
2018-11-13T10:09:49.464Z,17.54
2018-11-13T10:10:49.518Z,17.52
2018-11-13T10:11:49.323Z,17.62
2018-11-13T10:12:49.251Z,17.54
2018-11-13T10:13:49.181Z,17.48
2018-11-13T10:14:49.130Z,17.49
2018-11-13T10:15:49.056Z,17.48
2018-11-13T10:16:48.979Z,17.54
2018-11-13T10:17:48.986Z,17.51
2018-11-13T10:18:48.850Z,17.55
2018-11-13T10:19:48.777Z,17.66
2018-11-13T10:20:48.725Z,17.55
2018-11-13T10:21:48.669Z,17.54
2018-11-13T10:22:48.592Z,17.54
2018-11-13T10:23:48.526Z,17.63
2018-11-13T10:24:48.462Z,17.62
2018-11-13T10:25:48.384Z,17.63
2018-11-13T10:26:48.312Z,17.82
2018-11-13T10:27:48.355Z,17.81
2018-11-13T10:28:48.190Z,17.86
2018-11-13T10:29:48.144Z,17.78
2018-11-13T10:30:48.062Z,17.74
2018-11-13T10:31:47.982Z,17.75
2018-11-13T10:32:47.930Z,17.64
2018-11-13T10:33:47.860Z,17.70
2018-11-13T10:34:47.787Z,17.78
2018-11-13T10:35:47.749Z,17.77
2018-11-13T10:36:47.648Z,17.82
2018-11-13T10:37:47.582Z,17.81
2018-11-13T10:38:47.518Z,17.86
2018-11-13T10:39:47.467Z,17.79
2018-11-13T10:40:47.591Z,17.89
2018-11-13T10:41:47.313Z,17.87
2018-11-13T10:42:47.262Z,17.82
2018-11-13T10:43:47.175Z,17.84
2018-11-13T10:44:47.126Z,17.79
2018-11-13T10:45:47.068Z,17.84
2018-11-13T10:46:46.985Z,17.82
2018-11-13T10:47:46.926Z,17.84
2018-11-13T10:48:46.860Z,17.93
2018-11-13T10:49:46.784Z,17.82
2018-11-13T10:50:46.722Z,17.84
2018-11-13T10:51:46.650Z,17.95
2018-11-13T10:52:46.598Z,17.96
2018-11-13T10:53:46.524Z,18.08
2018-11-13T10:54:46.463Z,18.11
2018-11-13T10:55:46.381Z,18.17
2018-11-13T10:56:46.324Z,18.18
2018-11-13T10:57:46.256Z,18.25
2018-11-13T10:58:46.187Z,18.26
2018-11-13T10:59:46.123Z,18.23
2018-11-13T11:00:46.069Z,18.26
2018-11-13T11:01:46.023Z,18.21
2018-11-13T11:02:45.930Z,18.35
2018-11-13T11:03:45.857Z,18.30
2018-11-13T11:04:45.787Z,18.33
2018-11-13T11:05:45.736Z,18.30
2018-11-13T11:06:45.656Z,18.37
2018-11-13T11:07:45.602Z,18.39
2018-11-13T11:08:45.528Z,18.47
2018-11-13T11:09:45.460Z,18.42
2018-11-13T11:10:45.389Z,18.36
2018-11-13T11:11:45.334Z,18.35
2018-11-13T11:12:45.304Z,18.36
2018-11-13T11:13:45.272Z,18.37
2018-11-13T11:14:45.130Z,18.35
2018-11-13T11:15:45.051Z,18.32
2018-11-13T11:16:44.998Z,18.23
2018-11-13T11:17:44.926Z,18.14
2018-11-13T11:18:44.957Z,18.17
2018-11-13T11:19:44.782Z,18.11
2018-11-13T11:20:44.736Z,18.03
2018-11-13T11:21:44.664Z,17.93
2018-11-13T11:22:44.617Z,17.97
2018-11-13T11:23:44.650Z,18.00
2018-11-13T11:24:44.453Z,18.08
2018-11-13T11:25:44.389Z,18.20
2018-11-13T11:26:44.322Z,18.14
2018-11-13T11:27:44.266Z,18.26
2018-11-13T11:28:44.199Z,18.26
2018-11-13T11:29:44.136Z,18.26
2018-11-13T11:30:44.072Z,18.15
2018-11-13T11:31:43.998Z,18.15
2018-11-13T11:32:43.925Z,18.26
2018-11-13T11:33:43.864Z,18.21
2018-11-13T11:34:43.806Z,18.35
2018-11-13T11:35:43.734Z,18.35
2018-11-13T11:36:43.660Z,18.42
2018-11-13T11:37:43.599Z,18.48
2018-11-13T11:38:43.597Z,18.52
2018-11-13T11:39:43.464Z,18.60
2018-11-13T11:40:43.413Z,18.50
2018-11-13T11:41:43.340Z,18.48
2018-11-13T11:42:43.263Z,18.60
2018-11-13T11:43:43.216Z,18.52
2018-11-13T11:44:43.141Z,18.45
2018-11-13T11:45:43.076Z,18.35
2018-11-13T11:46:43.008Z,18.32
2018-11-13T11:47:42.950Z,18.32
2018-11-13T11:48:42.868Z,18.33
2018-11-13T11:49:42.802Z,18.21
2018-11-13T11:50:42.747Z,18.12
2018-11-13T11:51:42.681Z,18.18
2018-11-13T11:52:42.601Z,18.26
2018-11-13T11:53:42.580Z,18.20
2018-11-13T11:54:42.472Z,18.23
2018-11-13T11:55:42.407Z,18.20
2018-11-13T11:56:42.348Z,18.25
2018-11-13T11:57:42.288Z,18.37
2018-11-13T11:58:42.213Z,18.39
2018-11-13T11:59:42.205Z,18.33
2018-11-13T12:00:42.207Z,18.39
2018-11-13T12:01:42.008Z,18.39
2018-11-13T12:02:41.967Z,18.42
2018-11-13T12:03:41.901Z,18.51
2018-11-13T12:04:41.836Z,18.41
2018-11-13T12:05:41.754Z,18.57
2018-11-13T12:06:41.678Z,18.50
2018-11-13T12:07:41.609Z,18.60
2018-11-13T12:08:41.554Z,18.58
2018-11-13T12:09:41.484Z,18.67
2018-11-13T12:10:41.457Z,18.65
2018-11-13T12:11:41.357Z,18.73
2018-11-13T12:12:41.279Z,18.70
2018-11-13T12:13:41.216Z,18.67
2018-11-13T12:14:41.154Z,18.73
2018-11-13T12:15:41.092Z,18.76
2018-11-13T12:16:41.017Z,18.73
2018-11-13T12:17:40.949Z,18.88
2018-11-13T12:18:40.902Z,18.80
2018-11-13T12:19:40.824Z,18.91
2018-11-13T12:20:40.767Z,18.90
2018-11-13T12:21:40.696Z,18.85
2018-11-13T12:22:40.641Z,18.92
2018-11-13T12:23:40.555Z,18.73
2018-11-13T12:24:40.517Z,18.80
2018-11-13T12:25:40.484Z,18.70
2018-11-13T12:26:41.968Z,18.70
2018-11-13T12:27:40.305Z,18.75
2018-11-13T12:28:40.269Z,18.66
2018-11-13T12:29:40.157Z,18.75
2018-11-13T12:30:40.098Z,18.65
2018-11-13T12:31:40.029Z,18.70
2018-11-13T12:32:39.979Z,18.55
2018-11-13T12:33:39.928Z,18.58
2018-11-13T12:34:39.854Z,18.72
2018-11-13T12:35:39.777Z,18.72
2018-11-13T12:36:39.719Z,18.70
2018-11-13T12:37:39.637Z,18.73
2018-11-13T12:38:39.575Z,18.76
2018-11-13T12:39:39.512Z,18.80
2018-11-13T12:40:41.418Z,18.70
2018-11-13T12:41:39.369Z,18.72
2018-11-13T12:42:39.307Z,18.72
2018-11-13T12:43:39.257Z,18.70
2018-11-13T12:44:39.183Z,18.72
2018-11-13T12:45:39.112Z,18.69
2018-11-13T12:46:39.088Z,18.75
2018-11-13T12:47:38.972Z,18.81
2018-11-13T12:48:38.957Z,18.85
2018-11-13T12:49:38.855Z,18.85
2018-11-13T12:50:38.788Z,18.82
2018-11-13T12:51:38.718Z,18.81